Pathein, Burma
Current Conditions -  °F | °C
As of 1:00 PM on Saturday 20 Dec 2014 (Local Time) from VYYY Reporting Station
Few Clouds Few Clouds  
Wind Chill: 86°   Ceiling: Unl
Heat Index: 95°   Visibility: 6mi
Dew Point: 75°   Wind: 6mph
Humidity: 70%   Direction: 40°NE
Pressure: 29.88"   Gusts: NA
Location:  16.78°N, 94.73°E
Report Text: VYYY 200700Z 04005KT 9000 R21/2000N FEW250 30/24 Q1012 NOSIG
Loading
Personal Weather Stations






























Interactive Weather Map New forecast layout! Learn more

10-Day Weather Forecast

Advertisements
Track Severe Weather on mobile